createdAt,value
2018-02-16T00:01:13.368Z,30.40
2018-02-16T00:03:41.024Z,27.43
2018-02-16T00:06:08.587Z,27.40
2018-02-16T00:08:36.168Z,27.40
2018-02-16T00:11:03.710Z,25.00
2018-02-16T00:13:31.368Z,28.50
2018-02-16T00:15:59.234Z,22.50
2018-02-16T00:18:26.815Z,25.47
2018-02-16T00:20:54.354Z,22.13
2018-02-16T00:23:21.913Z,24.27
2018-02-16T00:25:49.492Z,27.57
2018-02-16T00:28:17.037Z,26.20
2018-02-16T00:30:44.602Z,29.33
2018-02-16T00:33:12.153Z,22.23
2018-02-16T00:35:39.700Z,24.97
2018-02-16T00:38:07.255Z,26.23
2018-02-16T00:40:34.805Z,29.77
2018-02-16T00:43:03.144Z,26.50
2018-02-16T00:45:30.724Z,26.37
2018-02-16T00:47:58.298Z,31.57
2018-02-16T00:50:26.639Z,21.70
2018-02-16T00:52:54.222Z,31.23
2018-02-16T00:55:21.783Z,25.70
2018-02-16T00:57:49.318Z,26.70
2018-02-16T01:00:16.885Z,29.67
2018-02-16T01:02:44.546Z,23.27
2018-02-16T01:05:12.089Z,28.20
2018-02-16T01:07:39.760Z,28.70
2018-02-16T01:10:07.304Z,29.80
2018-02-16T01:12:34.845Z,30.77
2018-02-16T01:15:02.398Z,28.63
2018-02-16T01:17:29.945Z,25.73
2018-02-16T01:19:58.246Z,30.60
2018-02-16T01:22:25.804Z,28.07
2018-02-16T01:24:53.387Z,27.60
2018-02-16T01:27:20.923Z,28.87
2018-02-16T01:29:48.518Z,27.80
2018-02-16T01:32:16.187Z,24.63
2018-02-16T01:34:43.742Z,28.87
2018-02-16T01:37:11.294Z,24.40
2018-02-16T01:39:38.829Z,24.57
2018-02-16T01:42:06.376Z,29.27
2018-02-16T01:44:33.981Z,29.87
2018-02-16T01:47:01.519Z,26.93
2018-02-16T01:49:29.055Z,27.67
2018-02-16T01:51:56.610Z,26.83
2018-02-16T01:54:25.045Z,35.20
2018-02-16T01:56:52.594Z,27.00
2018-02-16T01:59:20.251Z,26.97
2018-02-16T02:01:47.810Z,28.57
2018-02-16T02:04:15.375Z,28.23
2018-02-16T02:06:42.942Z,36.10
2018-02-16T02:09:10.601Z,31.37
2018-02-16T02:11:38.145Z,26.10
2018-02-16T02:14:05.718Z,28.43
2018-02-16T02:16:33.260Z,28.97
2018-02-16T02:19:00.809Z,27.27
2018-02-16T02:21:28.375Z,25.33
2018-02-16T02:23:55.953Z,27.70
2018-02-16T02:26:23.515Z,32.70
2018-02-16T02:28:51.077Z,25.93
2018-02-16T02:31:18.605Z,27.23
2018-02-16T02:33:46.192Z,30.53
2018-02-16T02:36:13.745Z,31.23
2018-02-16T02:38:41.281Z,28.00
2018-02-16T02:41:08.886Z,24.47
2018-02-16T02:43:36.537Z,32.90
2018-02-16T02:46:04.091Z,27.87
2018-02-16T02:48:31.650Z,29.83
2018-02-16T02:50:59.210Z,27.83
2018-02-16T02:53:26.757Z,26.57
2018-02-16T02:55:54.320Z,25.37
2018-02-16T02:58:21.893Z,20.13
2018-02-16T03:00:49.434Z,25.57
2018-02-16T03:03:17.014Z,23.27
2018-02-16T03:05:44.671Z,24.27
2018-02-16T03:08:12.247Z,25.03
2018-02-16T03:10:39.892Z,23.83
2018-02-16T03:13:07.581Z,27.00
2018-02-16T03:15:35.139Z,27.40
2018-02-16T03:18:02.680Z,23.47
2018-02-16T03:20:30.230Z,26.90
2018-02-16T03:22:57.768Z,22.13
2018-02-16T03:25:26.068Z,23.57
2018-02-16T03:27:53.653Z,24.93
2018-02-16T03:30:21.313Z,26.07
2018-02-16T03:32:48.849Z,23.03
2018-02-16T03:35:16.410Z,26.67
2018-02-16T03:37:43.997Z,28.80
2018-02-16T03:40:11.535Z,28.20
2018-02-16T03:42:39.106Z,17.33
2018-02-16T03:45:06.653Z,33.77
2018-02-16T03:47:34.238Z,25.70
2018-02-16T03:50:01.803Z,25.83
2018-02-16T03:52:29.375Z,32.77
2018-02-16T03:54:56.950Z,25.07
2018-02-16T03:57:25.392Z,20.73
2018-02-16T03:59:52.945Z,28.93
2018-02-16T04:02:20.474Z,29.33
2018-02-16T04:04:48.016Z,30.07
2018-02-16T04:07:16.434Z,27.17
2018-02-16T04:09:43.971Z,25.53
2018-02-16T04:12:11.517Z,21.97
2018-02-16T04:14:40.088Z,29.23
2018-02-16T04:17:07.644Z,25.20
2018-02-16T04:19:35.278Z,20.73
2018-02-16T04:22:02.821Z,27.40
2018-02-16T04:24:30.397Z,24.90
2018-02-16T04:26:57.965Z,28.07
2018-02-16T04:29:25.616Z,28.10
2018-02-16T04:31:53.174Z,27.10
2018-02-16T04:34:20.716Z,25.30
2018-02-16T04:36:48.268Z,28.90
2018-02-16T04:39:15.801Z,26.40
2018-02-16T04:41:44.115Z,30.90
2018-02-16T04:44:11.690Z,27.53
2018-02-16T04:46:39.238Z,19.63
2018-02-16T04:49:06.813Z,26.37
2018-02-16T04:51:34.339Z,21.43
2018-02-16T04:54:01.934Z,23.70
2018-02-16T04:56:29.482Z,27.17
2018-02-16T04:58:57.035Z,26.97
2018-02-16T05:01:24.575Z,24.93
2018-02-16T05:03:52.122Z,23.97
2018-02-16T05:06:20.437Z,25.23
2018-02-16T05:08:47.973Z,28.07
2018-02-16T05:11:15.583Z,23.53
2018-02-16T05:13:43.129Z,21.97
2018-02-16T05:16:10.670Z,31.60
2018-02-16T05:18:38.231Z,30.30
2018-02-16T05:21:05.768Z,20.13
2018-02-16T05:23:34.075Z,22.60
2018-02-16T05:26:01.650Z,26.40
2018-02-16T05:28:29.191Z,22.83
2018-02-16T05:30:56.773Z,28.23
2018-02-16T05:33:24.418Z,25.53
2018-02-16T05:35:51.994Z,25.67
2018-02-16T05:38:19.528Z,30.03
2018-02-16T05:40:47.099Z,21.00
2018-02-16T05:43:14.649Z,27.23
2018-02-16T05:45:42.195Z,24.07
2018-02-16T05:48:09.757Z,23.33
2018-02-16T05:50:37.303Z,23.93
2018-02-16T05:53:05.637Z,27.37
2018-02-16T05:55:33.286Z,25.03
2018-02-16T05:58:00.853Z,24.80
2018-02-16T06:00:28.403Z,16.93
2018-02-16T06:02:55.952Z,22.60
2018-02-16T06:05:23.496Z,25.60
2018-02-16T06:07:51.054Z,26.07
2018-02-16T06:10:18.663Z,23.37
2018-02-16T06:12:46.324Z,21.57
2018-02-16T06:15:13.871Z,26.70
2018-02-16T06:17:41.535Z,34.60
2018-02-16T06:20:09.985Z,25.40
2018-02-16T06:22:38.397Z,24.40
2018-02-16T06:25:05.957Z,31.67
2018-02-16T06:27:33.509Z,22.83
2018-02-16T06:30:01.084Z,27.03
2018-02-16T06:32:28.634Z,23.07
2018-02-16T06:34:56.181Z,21.47
2018-02-16T06:37:23.724Z,23.10
2018-02-16T06:39:51.287Z,34.80
2018-02-16T06:42:18.824Z,29.03
2018-02-16T06:44:47.150Z,23.67
2018-02-16T06:47:14.704Z,30.40
2018-02-16T06:49:42.241Z,24.07
2018-02-16T06:52:09.780Z,27.63
2018-02-16T06:54:38.113Z,27.60
2018-02-16T06:57:05.644Z,29.20
2018-02-16T06:59:33.193Z,28.30
2018-02-16T07:02:00.777Z,23.90
2018-02-16T07:04:28.341Z,28.80
2018-02-16T07:06:55.893Z,24.77
2018-02-16T07:09:23.493Z,29.83
2018-02-16T07:11:51.050Z,25.93
2018-02-16T07:14:18.593Z,24.87
2018-02-16T07:16:46.146Z,29.87
2018-02-16T07:19:13.682Z,29.70
2018-02-16T07:21:41.211Z,27.27
2018-02-16T07:24:09.658Z,31.30
2018-02-16T07:26:37.326Z,29.83
2018-02-16T07:29:04.872Z,39.57
2018-02-16T07:31:32.437Z,26.83
2018-02-16T07:33:59.990Z,34.37
2018-02-16T07:36:27.643Z,28.20
2018-02-16T07:38:55.405Z,27.93
2018-02-16T07:41:22.943Z,20.47
2018-02-16T07:43:50.504Z,26.17
2018-02-16T07:46:18.097Z,27.43
2018-02-16T07:48:45.643Z,23.60
2018-02-16T07:51:13.196Z,25.30
2018-02-16T07:53:40.791Z,28.37
2018-02-16T07:56:08.353Z,24.10
2018-02-16T07:58:35.911Z,24.83
2018-02-16T08:01:03.559Z,30.47
2018-02-16T08:03:31.117Z,23.77
2018-02-16T08:05:58.678Z,34.37
2018-02-16T08:08:26.254Z,34.93
2018-02-16T08:10:53.811Z,19.17
2018-02-16T08:13:21.360Z,19.63
2018-02-16T08:15:48.932Z,21.47
2018-02-16T08:18:16.472Z,27.73
2018-02-16T08:20:44.024Z,12.57
2018-02-16T08:23:11.581Z,25.40
2018-02-16T08:25:39.180Z,19.87
2018-02-16T08:28:06.728Z,21.23
2018-02-16T08:30:34.284Z,24.07
2018-02-16T08:33:01.853Z,20.97
2018-02-16T08:35:29.390Z,20.43
2018-02-16T08:37:56.971Z,26.80
2018-02-16T08:40:24.543Z,26.70
2018-02-16T08:42:52.132Z,18.17
2018-02-16T08:45:20.452Z,22.27
2018-02-16T08:47:48.003Z,24.30
2018-02-16T08:50:15.544Z,22.03
2018-02-16T08:52:43.881Z,23.00
2018-02-16T08:55:11.425Z,25.93
2018-02-16T08:57:38.986Z,20.60
2018-02-16T09:00:06.551Z,22.77
2018-02-16T09:02:34.099Z,19.27
2018-02-16T09:05:01.651Z,27.57
2018-02-16T09:07:29.221Z,29.77
2018-02-16T09:09:56.768Z,32.33
2018-02-16T09:12:24.301Z,24.13
2018-02-16T09:14:51.891Z,24.77
2018-02-16T09:17:19.440Z,24.17
2018-02-16T09:19:47.016Z,22.43
2018-02-16T09:22:14.608Z,23.47
2018-02-16T09:24:43.643Z,27.83
2018-02-16T09:27:11.186Z,28.40
2018-02-16T09:29:39.520Z,28.67
2018-02-16T09:32:07.075Z,22.87
2018-02-16T09:34:34.618Z,33.90
2018-02-16T09:37:02.750Z,20.77
2018-02-16T09:39:31.984Z,34.00
2018-02-16T09:41:59.533Z,21.37
2018-02-16T09:44:27.086Z,25.00
2018-02-16T09:46:55.405Z,26.40
2018-02-16T09:49:23.705Z,27.87
2018-02-16T09:51:51.270Z,21.10
2018-02-16T09:54:18.795Z,21.43
2018-02-16T09:56:46.348Z,30.13
2018-02-16T09:59:13.917Z,26.87
2018-02-16T10:01:41.475Z,25.00
2018-02-16T10:04:09.046Z,27.40
2018-02-16T10:06:36.607Z,22.10
2018-02-16T10:09:04.152Z,27.17
2018-02-16T10:11:31.706Z,22.00
2018-02-16T10:13:59.265Z,20.33
2018-02-16T10:16:26.818Z,16.80
2018-02-16T10:18:54.411Z,24.70
2018-02-16T10:21:21.960Z,23.43
2018-02-16T10:23:49.505Z,18.23
2018-02-16T10:26:17.066Z,20.13
2018-02-16T10:28:44.657Z,20.67
2018-02-16T10:31:12.217Z,23.37
2018-02-16T10:33:39.783Z,30.97
2018-02-16T10:36:07.346Z,19.27
2018-02-16T10:38:34.987Z,22.90
2018-02-16T10:41:02.552Z,26.57
2018-02-16T10:43:30.104Z,28.63
2018-02-16T10:45:57.657Z,25.07
2018-02-16T10:48:25.207Z,30.20
2018-02-16T10:50:52.770Z,25.60
2018-02-16T10:53:20.308Z,16.30
2018-02-16T10:55:47.914Z,24.37
2018-02-16T10:58:15.454Z,30.63
2018-02-16T11:00:48.740Z,21.83
2018-02-16T11:03:21.946Z,18.53
2018-02-16T11:05:50.444Z,24.97
2018-02-16T11:08:23.680Z,20.53
2018-02-16T11:10:52.093Z,17.30
2018-02-16T11:13:19.648Z,22.03
2018-02-16T11:15:47.223Z,19.90
2018-02-16T11:18:14.795Z,22.27
2018-02-16T11:20:42.457Z,18.13
2018-02-16T11:23:10.018Z,20.03
2018-02-16T11:25:37.576Z,20.13
2018-02-16T11:28:05.906Z,20.00
2018-02-16T11:30:33.493Z,18.87
2018-02-16T11:33:01.047Z,17.70
2018-02-16T11:35:28.599Z,18.67
2018-02-16T11:37:56.186Z,16.47
2018-02-16T11:40:23.759Z,14.80
2018-02-16T11:42:51.306Z,15.50
2018-02-16T11:45:19.002Z,14.80
2018-02-16T11:47:46.538Z,13.17
2018-02-16T11:50:14.084Z,9.50
2018-02-16T11:52:41.671Z,15.47
2018-02-16T11:55:10.521Z,12.93
2018-02-16T11:57:38.058Z,14.07
2018-02-16T12:00:06.378Z,10.50
2018-02-16T12:02:34.694Z,12.23
2018-02-16T12:05:03.007Z,14.30
2018-02-16T12:07:30.550Z,12.20
2018-02-16T12:09:58.843Z,11.57
2018-02-16T12:12:26.385Z,11.97
2018-02-16T12:14:54.800Z,10.37
2018-02-16T12:17:22.353Z,14.73
2018-02-16T12:19:49.898Z,14.63
2018-02-16T12:22:17.455Z,16.20
2018-02-16T12:24:45.011Z,10.77
2018-02-16T12:27:12.562Z,11.97
2018-02-16T12:29:40.873Z,12.03
2018-02-16T12:32:08.411Z,10.07
2018-02-16T12:34:36.003Z,15.03
2018-02-16T12:37:03.560Z,10.93
2018-02-16T12:39:31.141Z,10.33
2018-02-16T12:41:58.688Z,8.30
2018-02-16T12:44:26.356Z,11.33
2018-02-16T12:46:54.000Z,11.63
2018-02-16T12:49:21.575Z,11.57
2018-02-16T12:51:49.141Z,15.73
2018-02-16T12:54:16.697Z,20.47
2018-02-16T12:56:44.250Z,10.30
2018-02-16T12:59:11.803Z,15.53
2018-02-16T13:01:39.364Z,9.97
2018-02-16T13:04:06.913Z,9.80
2018-02-16T13:06:34.480Z,12.37
2018-02-16T13:09:02.034Z,6.30
2018-02-16T13:11:29.579Z,10.37
2018-02-16T13:13:57.135Z,9.80
2018-02-16T13:16:24.742Z,11.23
2018-02-16T13:18:52.304Z,14.20
2018-02-16T13:21:19.877Z,5.87
2018-02-16T13:23:47.519Z,7.00
2018-02-16T13:26:15.057Z,9.30
2018-02-16T13:28:42.610Z,10.13
2018-02-16T13:31:10.146Z,8.73
2018-02-16T13:33:38.464Z,12.33
2018-02-16T13:36:06.017Z,8.77
2018-02-16T13:38:33.552Z,11.80
2018-02-16T13:41:01.875Z,9.87
2018-02-16T13:43:29.428Z,14.43
2018-02-16T13:45:56.985Z,7.90
2018-02-16T13:48:24.528Z,12.93
2018-02-16T13:50:52.089Z,11.33
2018-02-16T13:53:19.682Z,7.40
2018-02-16T13:55:47.238Z,13.63
2018-02-16T13:58:14.794Z,14.97
2018-02-16T14:00:42.343Z,9.40
2018-02-16T14:03:09.881Z,10.23
2018-02-16T14:05:37.475Z,16.07
2018-02-16T14:08:05.021Z,7.13
2018-02-16T14:10:32.564Z,12.20
2018-02-16T14:13:00.131Z,9.33
2018-02-16T14:15:27.678Z,9.47
2018-02-16T14:17:55.206Z,8.73
2018-02-16T14:20:22.835Z,6.83
2018-02-16T14:22:50.375Z,9.93
2018-02-16T14:25:17.970Z,7.90
2018-02-16T14:27:45.543Z,7.70
2018-02-16T14:30:13.082Z,9.77
2018-02-16T14:32:40.736Z,11.37
2018-02-16T14:35:08.402Z,11.00
2018-02-16T14:37:35.975Z,10.73
2018-02-16T14:40:03.519Z,7.73
2018-02-16T14:42:31.075Z,8.60
2018-02-16T14:44:58.625Z,9.07
2018-02-16T14:47:26.200Z,10.53
2018-02-16T14:49:53.763Z,10.00
2018-02-16T14:52:21.311Z,11.57
2018-02-16T14:54:48.887Z,12.30
2018-02-16T14:57:16.461Z,16.40
2018-02-16T14:59:43.996Z,12.30
2018-02-16T15:02:11.530Z,10.70
2018-02-16T15:04:39.166Z,9.83
2018-02-16T15:07:06.777Z,11.93
2018-02-16T15:09:34.337Z,8.80
2018-02-16T15:12:01.885Z,9.87
2018-02-16T15:14:29.430Z,11.23
2018-02-16T15:16:57.001Z,9.80
2018-02-16T15:19:24.598Z,6.90
2018-02-16T15:21:52.131Z,10.50
2018-02-16T15:24:19.666Z,10.03
2018-02-16T15:26:47.218Z,5.10
2018-02-16T15:29:15.521Z,7.70
2018-02-16T15:31:43.065Z,9.10
2018-02-16T15:34:10.626Z,14.87
2018-02-16T15:36:38.166Z,7.73
2018-02-16T15:39:06.494Z,10.47
2018-02-16T15:41:34.054Z,18.70
2018-02-16T15:44:01.718Z,13.37
2018-02-16T15:46:29.237Z,9.97
2018-02-16T15:48:57.570Z,17.33
2018-02-16T15:51:25.230Z,15.90
2018-02-16T15:53:52.759Z,8.30
2018-02-16T15:56:20.322Z,11.47
2018-02-16T15:58:47.875Z,21.60
2018-02-16T16:01:15.422Z,10.90
2018-02-16T16:03:42.983Z,29.23
2018-02-16T16:06:10.542Z,13.03
2018-02-16T16:08:38.077Z,11.53
2018-02-16T16:11:06.429Z,8.57
2018-02-16T16:13:33.970Z,8.93
2018-02-16T16:16:01.545Z,34.30
2018-02-16T16:18:29.091Z,14.83
2018-02-16T16:20:56.636Z,10.70
2018-02-16T16:23:24.183Z,19.03
2018-02-16T16:25:51.783Z,10.63
2018-02-16T16:28:19.316Z,11.97
2018-02-16T16:30:46.854Z,8.43
2018-02-16T16:33:14.404Z,7.30
2018-02-16T16:35:42.705Z,11.07
2018-02-16T16:38:10.257Z,15.83
2018-02-16T16:40:37.827Z,12.80
2018-02-16T16:43:05.370Z,9.90
2018-02-16T16:45:33.684Z,10.40
2018-02-16T16:48:01.235Z,13.90
2018-02-16T16:50:28.796Z,13.57
2018-02-16T16:52:56.324Z,9.53
2018-02-16T16:55:24.661Z,11.47
2018-02-16T16:57:52.218Z,8.10
2018-02-16T17:00:19.757Z,6.93
2018-02-16T17:02:47.334Z,12.80
2018-02-16T17:05:14.878Z,13.73
2018-02-16T17:07:42.425Z,11.27
2018-02-16T17:10:10.149Z,12.10
2018-02-16T17:12:38.461Z,9.13
2018-02-16T17:15:05.988Z,8.97
2018-02-16T17:17:34.296Z,12.47
2018-02-16T17:20:01.828Z,17.40
2018-02-16T17:22:30.130Z,11.90
2018-02-16T17:24:57.719Z,8.37
2018-02-16T17:27:25.258Z,12.13
2018-02-16T17:29:52.856Z,14.30
2018-02-16T17:32:20.427Z,12.43
2018-02-16T17:34:47.966Z,12.40
2018-02-16T17:37:15.506Z,14.70
2018-02-16T17:39:43.069Z,14.47
2018-02-16T17:42:10.615Z,10.60
2018-02-16T17:44:38.177Z,13.07
2018-02-16T17:47:05.743Z,17.57
2018-02-16T17:49:33.310Z,13.40
2018-02-16T17:52:00.859Z,16.00
2018-02-16T17:54:28.428Z,18.10
2018-02-16T17:56:55.987Z,15.57
2018-02-16T17:59:23.545Z,16.40
2018-02-16T18:01:51.116Z,18.60
2018-02-16T18:04:18.651Z,23.13
2018-02-16T18:06:46.190Z,18.67
2018-02-16T18:09:14.522Z,18.00
2018-02-16T18:11:42.082Z,18.77
2018-02-16T18:14:09.737Z,25.17
2018-02-16T18:16:37.351Z,21.40
2018-02-16T18:19:05.664Z,18.07
2018-02-16T18:21:33.221Z,21.13
2018-02-16T18:24:00.932Z,24.77
2018-02-16T18:26:28.477Z,14.70
2018-02-16T18:28:56.091Z,19.20
2018-02-16T18:31:23.648Z,14.40
2018-02-16T18:33:51.257Z,16.47
2018-02-16T18:36:18.795Z,21.40
2018-02-16T18:38:46.349Z,27.77
2018-02-16T18:41:13.917Z,15.70
2018-02-16T18:43:41.473Z,16.13
2018-02-16T18:46:09.047Z,17.83
2018-02-16T18:48:37.542Z,15.17
2018-02-16T18:51:05.086Z,17.90
2018-02-16T18:53:32.652Z,15.10
2018-02-16T18:56:00.193Z,13.70
2018-02-16T18:58:27.774Z,14.27
2018-02-16T19:00:55.338Z,18.10
2018-02-16T19:03:22.992Z,18.97
2018-02-16T19:05:50.535Z,21.67
2018-02-16T19:08:18.085Z,18.43
2018-02-16T19:10:45.629Z,20.77
2018-02-16T19:13:13.954Z,19.77
2018-02-16T19:15:41.611Z,18.20
2018-02-16T19:18:09.389Z,20.03
2018-02-16T19:20:36.948Z,21.73
2018-02-16T19:23:04.496Z,21.97
2018-02-16T19:25:32.045Z,21.23
2018-02-16T19:27:59.591Z,19.63
2018-02-16T19:30:27.146Z,21.90
2018-02-16T19:32:54.692Z,19.23
2018-02-16T19:35:23.003Z,23.20
2018-02-16T19:37:50.560Z,16.33
2018-02-16T19:40:18.118Z,23.73
2018-02-16T19:42:45.700Z,21.13
2018-02-16T19:45:13.270Z,19.97
2018-02-16T19:47:40.811Z,23.83
2018-02-16T19:50:08.353Z,19.10
2018-02-16T19:52:35.968Z,20.30
2018-02-16T19:55:03.503Z,22.93
2018-02-16T19:57:31.061Z,21.93
2018-02-16T19:59:58.622Z,25.03
2018-02-16T20:02:26.181Z,18.17
2018-02-16T20:04:54.480Z,12.07
2018-02-16T20:07:22.041Z,19.37
2018-02-16T20:09:49.584Z,16.77
2018-02-16T20:12:17.228Z,15.93
2018-02-16T20:14:44.785Z,18.50
2018-02-16T20:17:12.326Z,18.47
2018-02-16T20:19:39.863Z,14.33
2018-02-16T20:22:08.191Z,11.30
2018-02-16T20:24:35.747Z,19.43
2018-02-16T20:27:04.253Z,18.23
2018-02-16T20:29:31.924Z,18.33
2018-02-16T20:31:59.488Z,14.43
2018-02-16T20:34:27.041Z,18.77
2018-02-16T20:36:54.599Z,14.33
2018-02-16T20:39:22.137Z,18.13
2018-02-16T20:41:49.691Z,18.97
2018-02-16T20:44:17.238Z,13.93
2018-02-16T20:46:44.770Z,17.83
2018-02-16T20:49:13.061Z,13.47
2018-02-16T20:51:40.628Z,12.83
2018-02-16T20:54:08.178Z,14.40
2018-02-16T20:56:35.770Z,13.47
2018-02-16T20:59:03.332Z,19.23
2018-02-16T21:01:30.870Z,11.97
2018-02-16T21:03:58.401Z,19.37
2018-02-16T21:06:26.744Z,15.27
2018-02-16T21:08:54.304Z,11.27
2018-02-16T21:11:21.963Z,19.57
2018-02-16T21:13:49.544Z,23.23
2018-02-16T21:16:17.202Z,17.30
2018-02-16T21:18:44.750Z,15.60
2018-02-16T21:21:12.395Z,15.80
2018-02-16T21:23:39.935Z,18.90
2018-02-16T21:26:08.247Z,17.57
2018-02-16T21:28:35.816Z,17.97
2018-02-16T21:31:03.408Z,30.43
2018-02-16T21:33:30.958Z,29.67
2018-02-16T21:35:59.279Z,28.17
2018-02-16T21:38:26.819Z,23.87
2018-02-16T21:40:54.368Z,26.80
2018-02-16T21:43:21.988Z,29.97
2018-02-16T21:45:49.634Z,21.83
2018-02-16T21:48:17.205Z,20.97
2018-02-16T21:50:44.775Z,24.30
2018-02-16T21:53:12.330Z,26.13
2018-02-16T21:55:40.005Z,23.67
2018-02-16T21:58:08.356Z,18.10
2018-02-16T22:00:35.909Z,20.03
2018-02-16T22:03:03.469Z,22.10
2018-02-16T22:05:31.849Z,25.13
2018-02-16T22:07:59.392Z,22.00
2018-02-16T22:10:26.948Z,20.17
2018-02-16T22:12:54.543Z,23.23
2018-02-16T22:15:22.202Z,22.27
2018-02-16T22:17:49.890Z,26.27
2018-02-16T22:20:17.451Z,21.30
2018-02-16T22:22:45.010Z,22.97
2018-02-16T22:25:12.572Z,19.70
2018-02-16T22:27:40.128Z,17.87
2018-02-16T22:30:07.668Z,19.17
2018-02-16T22:32:35.223Z,18.03
2018-02-16T22:35:02.782Z,23.50
2018-02-16T22:37:31.865Z,19.00
2018-02-16T22:39:59.433Z,16.77
2018-02-16T22:42:27.112Z,21.13
2018-02-16T22:44:54.668Z,19.10
2018-02-16T22:47:22.203Z,14.60
2018-02-16T22:49:49.782Z,17.07
2018-02-16T22:52:17.334Z,17.30
2018-02-16T22:54:44.904Z,23.93
2018-02-16T22:57:12.479Z,28.47
2018-02-16T22:59:40.027Z,19.10
2018-02-16T23:02:07.575Z,27.73
2018-02-16T23:04:35.225Z,17.07
2018-02-16T23:07:02.771Z,21.53
2018-02-16T23:09:30.353Z,20.27
2018-02-16T23:11:58.022Z,18.20
2018-02-16T23:14:25.564Z,19.60
2018-02-16T23:16:53.154Z,16.57
2018-02-16T23:19:20.801Z,16.70
2018-02-16T23:21:48.346Z,18.03
2018-02-16T23:24:15.882Z,16.63
2018-02-16T23:26:44.301Z,19.60
2018-02-16T23:29:11.843Z,22.30
2018-02-16T23:31:39.391Z,21.07
2018-02-16T23:34:06.960Z,14.87
2018-02-16T23:36:34.510Z,20.63
2018-02-16T23:39:02.062Z,19.77
2018-02-16T23:41:29.751Z,22.20
2018-02-16T23:43:57.257Z,22.63
2018-02-16T23:46:24.922Z,24.60
2018-02-16T23:48:52.591Z,19.20
2018-02-16T23:51:20.166Z,25.00
2018-02-16T23:53:47.729Z,21.80
2018-02-16T23:56:15.308Z,23.20
2018-02-16T23:58:42.868Z,21.83
